METAR Data
IDs: Format: Raw Decoded Include TAF

Data at: 0750 UTC 27 Feb 2020

METAR for:PACD (Cold Bay Arpt, AK, US)
Text:PACD 270746Z AUTO 06004KT 10SM BKN001 OVC008 M02/M03 A2963 RMK AO2 T10171033 TSNO
Temperature: -1.7°C ( 29°F)
Dewpoint: -3.3°C ( 26°F) [RH = 89%]
Pressure (altimeter):29.63 inches Hg (1003.5 mb)
Winds:from the ENE (60 degrees) at 5 MPH (4 knots; 2.1 m/s)
Visibility:10 or more sm (16+ km)
Ceiling:100 feet AGL
Clouds: broken clouds at 100 feet AGL, overcast cloud deck at 800 feet AGL
QC Flag:automated observation with no human augmentation
Text:PACD 270717Z AUTO 06007KT 10SM BKN002 OVC050 M02/M04 A2962 RMK AO2 T10221039 TSNO
Temperature: -2.2°C ( 28°F)
Dewpoint: -3.9°C ( 25°F) [RH = 88%]
Pressure (altimeter):29.62 inches Hg (1003.1 mb)
Winds:from the ENE (60 degrees) at 8 MPH (7 knots; 3.6 m/s)
Visibility:10 or more sm (16+ km)
Ceiling:200 feet AGL
Clouds: broken clouds at 200 feet AGL, overcast cloud deck at 5000 feet AGL
QC Flag:automated observation with no human augmentation
Text:PACD 270653Z AUTO 06006KT 10SM SCT004 OVC050 M02/M03 A2962 RMK AO2 SLP030 T10171033 TSNO
Temperature: -1.7°C ( 29°F)
Dewpoint: -3.3°C ( 26°F) [RH = 89%]
Pressure (altimeter):29.62 inches Hg (1003.1 mb) [Sea level pressure: 1003.0 mb]
Winds:from the ENE (60 degrees) at 7 MPH (6 knots; 3.1 m/s)
Visibility:10 or more sm (16+ km)
Ceiling:5000 feet AGL
Clouds: scattered clouds at 400 feet AGL, overcast cloud deck at 5000 feet AGL
QC Flag:automated observation with no human augmentation
Text:PACD 270651Z AUTO 06006KT 10SM SCT004 OVC050 M02/M03 A2962 RMK AO2 TSNO
Temperature: -2.0°C ( 28°F)
Dewpoint: -3.0°C ( 27°F) [RH = 93%]
Pressure (altimeter):29.62 inches Hg (1003.1 mb)
Winds:from the ENE (60 degrees) at 7 MPH (6 knots; 3.1 m/s)
Visibility:10 or more sm (16+ km)
Ceiling:5000 feet AGL
Clouds: scattered clouds at 400 feet AGL, overcast cloud deck at 5000 feet AGL
QC Flag:automated observation with no human augmentation
Text:PACD 270614Z AUTO 08003KT 10SM OVC004 M02/M04 A2961 RMK AO2 T10221039 TSNO
Temperature: -2.2°C ( 28°F)
Dewpoint: -3.9°C ( 25°F) [RH = 88%]
Pressure (altimeter):29.61 inches Hg (1002.8 mb)
Winds:from the E (80 degrees) at 3 MPH (3 knots; 1.5 m/s)
Visibility:10 or more sm (16+ km)
Ceiling:400 feet AGL
Clouds: overcast cloud deck at 400 feet AGL
QC Flag:automated observation with no human augmentation
Text:PACD 270553Z AUTO 18003KT 10SM OVC005 M02/M04 A2961 RMK AO2 SLP028 T10221039 11006 21028 53007 TSNO
Temperature: -2.2°C ( 28°F)
Dewpoint: -3.9°C ( 25°F) [RH = 88%]
Pressure (altimeter):29.61 inches Hg (1002.8 mb) [Sea level pressure: 1002.8 mb]
Winds:from the S (180 degrees) at 3 MPH (3 knots; 1.5 m/s)
Visibility:10 or more sm (16+ km)
Ceiling:500 feet AGL
Clouds: overcast cloud deck at 500 feet AGL
QC Flag:automated observation with no human augmentation
Text:PACD 270502Z AUTO 18003KT 10SM OVC004 M02/M04 A2961 RMK AO2 T10221044 TSNO
Temperature: -2.2°C ( 28°F)
Dewpoint: -4.4°C ( 24°F) [RH = 85%]
Pressure (altimeter):29.61 inches Hg (1002.8 mb)
Winds:from the S (180 degrees) at 3 MPH (3 knots; 1.5 m/s)
Visibility:10 or more sm (16+ km)
Ceiling:400 feet AGL
Clouds: overcast cloud deck at 400 feet AGL
QC Flag:automated observation with no human augmentation
Text:PACD 270453Z AUTO 17003KT 10SM OVC005 M02/M04 A2960 RMK AO2 SLP026 T10221044 TSNO
Temperature: -2.2°C ( 28°F)
Dewpoint: -4.4°C ( 24°F) [RH = 85%]
Pressure (altimeter):29.60 inches Hg (1002.5 mb) [Sea level pressure: 1002.6 mb]
Winds:from the S (170 degrees) at 3 MPH (3 knots; 1.5 m/s)
Visibility:10 or more sm (16+ km)
Ceiling:500 feet AGL
Clouds: overcast cloud deck at 500 feet AGL
QC Flag:automated observation with no human augmentation
Text:PACD 270433Z AUTO 16003KT 10SM BKN006 OVC037 M02/M04 A2960 RMK AO2 T10221044 TSNO
Temperature: -2.2°C ( 28°F)
Dewpoint: -4.4°C ( 24°F) [RH = 85%]
Pressure (altimeter):29.60 inches Hg (1002.5 mb)
Winds:from the SSE (160 degrees) at 3 MPH (3 knots; 1.5 m/s)
Visibility:10 or more sm (16+ km)
Ceiling:600 feet AGL
Clouds: broken clouds at 600 feet AGL, overcast cloud deck at 3700 feet AGL
QC Flag:automated observation with no human augmentation
Text:PACD 270400Z AUTO 00000KT 10SM SCT005 BKN035 M02/M05 A2959 RMK AO2 T10221050 TSNO
Temperature: -2.2°C ( 28°F)
Dewpoint: -5.0°C ( 23°F) [RH = 81%]
Pressure (altimeter):29.59 inches Hg (1002.1 mb)
Winds:calm
Visibility:10 or more sm (16+ km)
Ceiling:3500 feet AGL
Clouds: scattered clouds at 500 feet AGL, broken clouds at 3500 feet AGL
QC Flag:automated observation with no human augmentation
Text:PACD 270353Z AUTO 00000KT 10SM BKN005 M02/M05 A2959 RMK AO2 SLP022 T10221050 TSNO
Temperature: -2.2°C ( 28°F)
Dewpoint: -5.0°C ( 23°F) [RH = 81%]
Pressure (altimeter):29.59 inches Hg (1002.1 mb) [Sea level pressure: 1002.2 mb]
Winds:calm
Visibility:10 or more sm (16+ km)
Ceiling:500 feet AGL
Clouds: broken clouds at 500 feet AGL
QC Flag:automated observation with no human augmentation
Text:PACD 270253Z AUTO 36004KT 10SM OVC009 M02/M04 A2959 RMK AO2 SLP021 T10171044 53006 TSNO
Temperature: -1.7°C ( 29°F)
Dewpoint: -4.4°C ( 24°F) [RH = 82%]
Pressure (altimeter):29.59 inches Hg (1002.1 mb) [Sea level pressure: 1002.1 mb]
Winds:from the N (360 degrees) at 5 MPH (4 knots; 2.1 m/s)
Visibility:10 or more sm (16+ km)
Ceiling:900 feet AGL
Clouds: overcast cloud deck at 900 feet AGL
QC Flag:automated observation with no human augmentation
Text:PACD 270153Z AUTO 03007KT 10SM OVC009 M01/M04 A2958 RMK AO2 SLP018 T10111039 TSNO
Temperature: -1.1°C ( 30°F)
Dewpoint: -3.9°C ( 25°F) [RH = 81%]
Pressure (altimeter):29.58 inches Hg (1001.8 mb) [Sea level pressure: 1001.8 mb]
Winds:from the NNE (30 degrees) at 8 MPH (7 knots; 3.6 m/s)
Visibility:10 or more sm (16+ km)
Ceiling:900 feet AGL
Clouds: overcast cloud deck at 900 feet AGL
QC Flag:automated observation with no human augmentation

TAF for:PACD (Cold Bay Arpt, AK, US) issued at 0531 UTC 27 Feb 2020
Text:PACD 270531Z 2706/2806 VRB06KT P6SM OVC005
Forecast period:0600 UTC 27 February 2020 to 0600 UTC 28 February 2020
Forecast type:FROM: standard forecast or significant change
Winds:variable direction winds at 7 MPH (6 knots; 3.1 m/s)
Visibility:6 or more sm (10+ km)
Ceiling:500 feet AGL
Clouds: overcast cloud deck at 500 feet AGL
Text:TEMPO 2706/2710 P6SM OVC025
Forecast period:0600 to 1000 UTC 27 February 2020
Forecast type:TEMPORARY: The following changes expected for less than half the time period
Visibility:6 or more sm (10+ km)
Ceiling:2500 feet AGL
Clouds: overcast cloud deck at 2500 feet AGL